createdAt,value
2023-03-02T00:03:53.125Z,9.1
2023-03-02T00:08:52.898Z,9.2
2023-03-02T00:14:05.536Z,10.5
2023-03-02T00:18:58.387Z,9.8
2023-03-02T00:24:17.038Z,13.6
2023-03-02T00:28:56.108Z,10.7
2023-03-02T00:33:53.276Z,10.7
2023-03-02T00:38:53.796Z,10.0
2023-03-02T00:43:53.740Z,11.6
2023-03-02T00:48:54.489Z,11.5
2023-03-02T00:54:18.151Z,21.9
2023-03-02T02:11:28.079Z,9.3
2023-03-02T02:17:43.315Z,10.5
2023-03-02T02:29:07.688Z,10.2
2023-03-02T02:34:07.410Z,10.0
2023-03-02T02:39:08.076Z,9.9
2023-03-02T02:44:07.385Z,9.5
2023-03-02T02:49:07.858Z,9.8
2023-03-02T02:55:31.513Z,9.2
2023-03-02T03:00:31.190Z,9.1
2023-03-02T03:05:32.283Z,10.0
2023-03-02T03:10:34.281Z,9.6
2023-03-02T03:15:30.708Z,10.0
2023-03-02T03:20:30.707Z,9.9
2023-03-02T03:25:30.643Z,10.7
2023-03-02T03:30:30.605Z,9.7
2023-03-02T03:35:30.500Z,9.5
2023-03-02T03:40:30.503Z,8.5
2023-03-02T03:45:30.567Z,8.0
2023-03-02T03:50:30.296Z,9.6
2023-03-02T03:55:30.225Z,9.4
2023-03-02T04:00:30.193Z,10.2
2023-03-02T04:05:31.700Z,9.7
2023-03-02T04:10:30.059Z,8.9
2023-03-02T04:15:30.123Z,9.6
2023-03-02T04:20:29.983Z,9.2
2023-03-02T04:25:31.026Z,9.6
2023-03-02T04:30:29.861Z,9.8
2023-03-02T04:35:29.800Z,10.0
2023-03-02T04:40:29.779Z,10.9
2023-03-02T04:45:29.683Z,9.8
2023-03-02T04:50:29.840Z,9.5
2023-03-02T04:55:29.597Z,9.0
2023-03-02T05:00:29.668Z,8.9
2023-03-02T05:05:29.567Z,9.7
2023-03-02T05:10:30.606Z,8.5
2023-03-02T05:15:29.495Z,9.5
2023-03-02T05:20:29.369Z,10.2
2023-03-02T05:25:29.301Z,9.6
2023-03-02T05:30:29.256Z,9.6
2023-03-02T05:35:30.336Z,10.1
2023-03-02T05:40:29.254Z,10.1
2023-03-02T05:45:29.101Z,10.1
2023-03-02T05:50:29.021Z,10.8
2023-03-02T05:55:28.989Z,9.6
2023-03-02T06:00:28.957Z,9.9
2023-03-02T06:05:28.882Z,10.1
2023-03-02T06:10:30.970Z,10.6
2023-03-02T06:15:29.817Z,9.9
2023-03-02T06:20:28.667Z,9.8
2023-03-02T06:25:28.652Z,8.9
2023-03-02T06:30:28.681Z,10.0
2023-03-02T06:35:28.653Z,9.5
2023-03-02T06:40:28.500Z,11.1
2023-03-02T06:45:28.430Z,11.1
2023-03-02T06:50:28.443Z,11.6
2023-03-02T06:55:28.368Z,10.3
2023-03-02T07:00:28.467Z,9.4
2023-03-02T07:05:29.298Z,8.8
2023-03-02T07:10:28.197Z,10.1
2023-03-02T07:15:28.138Z,10.1
2023-03-02T07:20:28.064Z,10.7
2023-03-02T07:25:27.987Z,9.5
2023-03-02T07:30:27.979Z,9.5
2023-03-02T07:35:28.069Z,8.9
2023-03-02T07:40:27.903Z,9.0
2023-03-02T07:45:27.799Z,8.7
2023-03-02T07:50:28.845Z,8.8
2023-03-02T07:55:27.658Z,8.4
2023-03-02T08:00:27.611Z,8.4
2023-03-02T08:05:27.629Z,8.6
2023-03-02T08:10:27.556Z,8.3
2023-03-02T08:15:27.483Z,9.1
2023-03-02T08:20:27.410Z,9.6
2023-03-02T08:25:27.393Z,11.0
2023-03-02T08:30:27.345Z,8.4
2023-03-02T08:35:27.310Z,8.3
2023-03-02T08:40:28.224Z,7.5
2023-03-02T08:45:27.171Z,7.7
2023-03-02T08:50:27.275Z,8.6
2023-03-02T08:55:27.114Z,7.9
2023-03-02T09:00:26.996Z,8.5
2023-03-02T09:05:27.055Z,7.9
2023-03-02T09:10:27.026Z,8.2
2023-03-02T09:15:26.832Z,8.5
2023-03-02T09:20:26.858Z,8.9
2023-03-02T09:25:26.722Z,8.1
2023-03-02T09:30:26.658Z,8.0
2023-03-02T09:35:26.608Z,8.2
2023-03-02T09:40:26.593Z,8.6
2023-03-02T09:45:26.470Z,9.6
2023-03-02T09:50:26.524Z,8.2
2023-03-02T09:55:26.387Z,7.6
2023-03-02T10:00:26.369Z,8.6
2023-03-02T10:05:26.291Z,8.1
2023-03-02T10:10:26.233Z,7.2
2023-03-02T10:15:26.130Z,7.9
2023-03-02T10:20:26.116Z,7.5
2023-03-02T10:25:26.067Z,7.9
2023-03-02T10:30:25.959Z,8.0
2023-03-02T10:35:25.988Z,7.5
2023-03-02T10:40:25.850Z,7.8
2023-03-02T10:45:25.831Z,7.9
2023-03-02T10:50:25.771Z,7.5
2023-03-02T10:55:25.751Z,7.3
2023-03-02T11:00:25.760Z,8.2
2023-03-02T11:05:25.632Z,9.2
2023-03-02T11:10:25.615Z,7.2
2023-03-02T11:15:25.601Z,6.8
2023-03-02T11:20:25.441Z,8.0
2023-03-02T11:25:25.371Z,8.4
2023-03-02T11:30:25.338Z,7.0
2023-03-02T11:35:25.381Z,7.1
2023-03-02T11:40:25.277Z,7.4
2023-03-02T11:45:25.158Z,7.1
2023-03-02T11:50:25.096Z,6.8
2023-03-02T11:55:25.037Z,7.5
2023-03-02T12:00:24.997Z,6.6
2023-03-02T12:05:25.031Z,6.6
2023-03-02T12:10:24.900Z,6.9
2023-03-02T12:15:24.828Z,6.1
2023-03-02T12:20:24.889Z,7.0
2023-03-02T12:25:28.207Z,6.6
2023-03-02T12:30:24.820Z,5.6
2023-03-02T12:35:24.652Z,5.9
2023-03-02T12:40:24.541Z,5.9
2023-03-02T12:45:24.520Z,6.3
2023-03-02T12:50:24.467Z,5.8
2023-03-02T12:55:25.478Z,6.2
2023-03-02T13:00:24.409Z,6.5
2023-03-02T13:05:24.349Z,6.5
2023-03-02T13:10:24.298Z,5.9
2023-03-02T13:15:24.169Z,5.4
2023-03-02T13:20:24.218Z,5.0
2023-03-02T13:25:24.036Z,5.6
2023-03-02T13:30:24.077Z,5.8
2023-03-02T13:35:26.313Z,5.0
2023-03-02T13:40:23.912Z,5.1
2023-03-02T13:45:24.874Z,4.5
2023-03-02T13:50:23.874Z,5.0
2023-03-02T13:55:23.793Z,4.5
2023-03-02T14:00:23.668Z,4.8
2023-03-02T14:05:23.777Z,5.3
2023-03-02T14:10:23.631Z,4.9
2023-03-02T14:15:23.536Z,5.2
2023-03-02T14:20:23.531Z,5.4
2023-03-02T14:25:23.465Z,5.1
2023-03-02T14:30:23.286Z,4.7
2023-03-02T14:35:23.277Z,4.8
2023-03-02T14:40:23.193Z,5.0
2023-03-02T14:45:23.231Z,4.7
2023-03-02T14:50:23.055Z,4.7
2023-03-02T14:55:23.010Z,4.3
2023-03-02T15:00:23.046Z,4.9
2023-03-02T15:05:23.002Z,4.8
2023-03-02T15:10:22.917Z,4.8
2023-03-02T15:15:22.804Z,5.3
2023-03-02T15:20:22.779Z,4.8
2023-03-02T15:25:22.774Z,5.9
2023-03-02T15:30:23.704Z,5.7
2023-03-02T15:35:22.588Z,5.0
2023-03-02T15:40:22.553Z,4.9
2023-03-02T15:45:22.534Z,5.2
2023-03-02T15:50:22.497Z,5.3
2023-03-02T15:55:22.372Z,5.5
2023-03-02T16:00:22.303Z,5.2
2023-03-02T16:05:22.421Z,5.5
2023-03-02T16:10:22.271Z,6.1
2023-03-02T16:15:22.341Z,5.6
2023-03-02T16:20:22.182Z,5.9
2023-03-02T16:25:22.063Z,7.1
2023-03-02T16:30:23.407Z,6.4
2023-03-02T16:35:21.976Z,6.8
2023-03-02T16:40:21.935Z,9.9
2023-03-02T16:45:21.899Z,9.7
2023-03-02T16:50:22.106Z,10.4
2023-03-02T16:55:27.330Z,10.5
2023-03-02T17:00:30.654Z,11.9
2023-03-02T17:05:22.609Z,12.7
2023-03-02T17:10:21.559Z,13.8
2023-03-02T17:15:21.475Z,13.2
2023-03-02T17:20:23.511Z,12.9
2023-03-02T17:25:22.451Z,13.7
2023-03-02T17:30:25.737Z,13.7
2023-03-02T17:35:21.253Z,13.6
2023-03-02T17:40:31.064Z,14.9
2023-03-02T17:45:21.177Z,37.7
2023-03-02T17:50:21.139Z,16.9
2023-03-02T17:55:21.052Z,18.1
2023-03-02T18:00:25.359Z,19.0
2023-03-02T18:05:21.993Z,16.6
2023-03-02T18:10:22.000Z,16.9
2023-03-02T18:15:20.929Z,19.9
2023-03-02T18:20:20.859Z,19.3
2023-03-02T18:25:20.738Z,18.4
2023-03-02T18:30:20.717Z,18.9
2023-03-02T18:35:20.607Z,19.2
2023-03-02T18:40:20.764Z,21.5
2023-03-02T18:45:20.567Z,19.4
2023-03-02T18:50:20.574Z,20.9
2023-03-02T18:55:20.436Z,22.0
2023-03-02T19:00:21.460Z,20.1
2023-03-02T19:05:20.276Z,21.3
2023-03-02T19:10:21.539Z,26.0
2023-03-02T19:15:20.210Z,21.4
2023-03-02T19:20:20.147Z,30.9
2023-03-02T19:25:21.140Z,22.1
2023-03-02T19:30:20.157Z,20.2
2023-03-02T19:35:20.068Z,21.9
2023-03-02T19:40:21.020Z,28.3
2023-03-02T19:45:19.875Z,26.5
2023-03-02T19:50:19.836Z,24.3
2023-03-02T19:55:19.737Z,24.4
2023-03-02T20:00:19.692Z,23.9
2023-03-02T20:05:19.619Z,27.5
2023-03-02T20:10:19.601Z,25.4
2023-03-02T20:15:19.526Z,25.9
2023-03-02T20:20:19.448Z,26.6
2023-03-02T20:25:19.435Z,29.3
2023-03-02T20:30:19.451Z,29.5
2023-03-02T20:35:21.386Z,30.6
2023-03-02T20:40:19.583Z,31.5
2023-03-02T20:45:20.261Z,32.1
2023-03-02T20:50:19.231Z,34.6
2023-03-02T20:55:21.136Z,33.4
2023-03-02T21:00:19.112Z,34.2
2023-03-02T21:05:19.005Z,35.3
2023-03-02T21:10:18.917Z,35.2
2023-03-02T21:15:18.877Z,35.4
2023-03-02T21:20:18.831Z,36.1
2023-03-02T21:25:18.762Z,38.5
2023-03-02T21:30:18.707Z,38.8
2023-03-02T21:35:18.642Z,37.6
2023-03-02T21:40:18.624Z,38.2
2023-03-02T21:45:18.606Z,39.9
2023-03-02T21:50:18.637Z,40.9
2023-03-02T21:55:18.442Z,41.9
2023-03-02T22:00:18.404Z,44.2
2023-03-02T22:05:18.352Z,46.3
2023-03-02T22:10:18.267Z,45.4
2023-03-02T22:15:18.258Z,45.5
2023-03-02T22:20:18.201Z,46.8
2023-03-02T22:25:18.195Z,46.1
2023-03-02T22:30:18.256Z,44.7
2023-03-02T22:35:18.113Z,45.6
2023-03-02T22:40:17.951Z,51.4
2023-03-02T22:45:17.892Z,49.9
2023-03-02T22:50:17.893Z,58.1
2023-03-02T22:55:17.848Z,52.0
2023-03-02T23:00:17.719Z,51.6
2023-03-02T23:05:17.682Z,50.4
2023-03-02T23:10:17.686Z,51.0
2023-03-02T23:15:17.577Z,53.3
2023-03-02T23:20:17.508Z,50.1
2023-03-02T23:25:17.457Z,49.1
2023-03-02T23:30:17.535Z,51.1
2023-03-02T23:35:17.501Z,48.8
2023-03-02T23:40:17.289Z,54.7
2023-03-02T23:45:17.261Z,54.2
2023-03-02T23:50:17.210Z,59.0
2023-03-02T23:55:17.159Z,52.4
